CDT,Max TemperatureF,Mean TemperatureF,Min TemperatureF,Max Dew PointF,MeanDew PointF,Min DewpointF,Max Humidity, Mean Humidity, Min Humidity, Max Sea Level PressureIn, Mean Sea Level PressureIn, Min Sea Level PressureIn, Max VisibilityMiles, Mean VisibilityMiles, Min VisibilityMiles, Max Wind SpeedMPH, Mean Wind SpeedMPH, Max Gust SpeedMPH,PrecipitationIn, CloudCover, Events, WindDirDegrees
2012-9-1,99,87,76,75,72,68,92,68,38,30.03,29.95,29.90,10.0,9.9,4.0,32,7,56,0.00,1,Rain-Thunderstorm,213
2012-9-2,98,87,76,74,71,67,92,62,39,30.00,29.93,29.87,10.0,10.0,10.0,12,5,16,0.00,0,,220
2012-9-3,99,88,77,72,69,66,73,54,36,29.96,29.90,29.84,10.0,10.0,10.0,12,7,,0.00,0,,224
2012-9-4,99,88,77,74,69,66,75,54,33,29.93,29.87,29.80,10.0,10.0,10.0,9,6,16,0.00,0,,213
2012-9-5,100,88,76,70,67,65,74,52,33,29.89,29.84,29.77,10.0,10.0,10.0,10,6,18,0.00,1,,212
2012-9-6,101,88,74,74,68,64,76,55,31,29.92,29.86,29.81,10.0,10.0,10.0,10,2,,0.00,0,,275
2012-9-7,102,88,74,69,65,63,76,52,29,29.92,29.83,29.70,10.0,10.0,10.0,21,4,32,0.00,1,,205
2012-9-8,82,72,63,67,55,46,95,59,32,30.10,30.04,29.91,10.0,9.9,7.0,18,11,29,0.00,1,Rain,2
2012-9-9,89,72,55,54,48,44,78,47,21,30.16,30.08,30.02,10.0,10.0,10.0,8,2,,0.00,0,,323
2012-9-10,92,74,57,56,50,47,81,47,21,30.14,30.06,29.99,10.0,10.0,10.0,7,2,,0.00,0,,184
2012-9-11,90,74,59,59,55,51,84,51,27,30.13,30.06,29.99,10.0,10.0,10.0,13,6,18,0.00,0,,145
2012-9-12,90,76,61,63,59,57,88,57,34,30.13,30.05,29.98,10.0,10.0,10.0,13,6,20,0.00,0,,137
2012-9-13,77,72,68,70,67,63,97,81,63,30.15,30.10,30.05,10.0,10.0,10.0,13,6,16,0.00,4,Rain-Thunderstorm,114
2012-9-14,77,70,63,70,64,61,98,85,68,30.19,30.16,30.12,10.0,10.0,10.0,12,4,,0.00,6,Rain,310
2012-9-15,81,70,61,64,62,61,98,82,58,30.19,30.14,30.07,10.0,9.0,4.0,8,5,,0.00,7,Rain,296
2012-9-16,69,66,64,65,63,61,98,88,78,30.09,30.04,29.98,10.0,9.8,5.0,8,4,,0.00,6,Rain,289
2012-9-17,80,72,63,66,64,62,100,83,57,29.98,29.88,29.80,10.0,8.0,0.5,8,2,,0.00,6,Fog-Rain,352
2012-9-18,80,70,61,63,50,34,94,56,20,30.10,30.00,29.87,10.0,10.0,7.0,16,7,24,0.00,1,,360
2012-9-19,84,67,50,51,47,43,83,49,25,30.16,30.09,30.01,10.0,10.0,10.0,10,3,,0.00,0,,169
2012-9-20,91,73,55,57,54,50,85,54,32,30.08,30.01,29.93,10.0,10.0,10.0,13,5,16,0.00,0,,174
2012-9-21,93,78,62,59,55,49,77,48,22,30.01,29.95,29.89,10.0,10.0,10.0,14,6,20,0.00,0,,207
2012-9-22,96,79,62,60,56,49,84,49,21,30.08,30.02,29.94,10.0,10.0,10.0,10,4,,0.00,0,,222
2012-9-23,89,76,65,63,57,51,89,56,34,30.21,30.13,30.08,10.0,10.0,10.0,15,7,22,0.00,0,,120
2012-9-24,93,76,60,66,56,47,66,51,31,30.17,30.07,29.95,10.0,10.0,10.0,14,9,21,0.00,0,,150
2012-9-25,93,82,72,68,62,55,82,54,29,30.00,29.94,29.87,10.0,10.0,10.0,21,9,29,0.00,0,,196
2012-9-26,92,83,74,69,65,60,80,58,34,30.04,29.98,29.94,10.0,10.0,10.0,16,7,28,0.00,2,Rain-Thunderstorm,190
2012-9-27,90,79,68,71,66,62,97,74,44,30.12,30.06,29.99,10.0,9.7,5.0,18,5,29,0.00,5,Rain-Thunderstorm,148
2012-9-28,83,75,67,69,67,66,99,80,57,30.10,30.04,29.97,10.0,9.6,5.0,7,2,,0.00,3,Rain,93
2012-9-29,72,70,66,69,68,66,99,94,88,30.01,29.96,29.90,10.0,8.6,4.0,10,3,16,0.00,7,Rain,72
2012-9-30,65,63,60,65,61,59,98,95,89,29.91,29.87,29.83,10.0,9.0,5.0,9,6,,0.00,6,Rain,11